createdAt,value
2023-04-08T00:00:52.517Z,101327.09
2023-04-08T00:03:21.461Z,101335.91
2023-04-08T00:05:49.880Z,101335.69
2023-04-08T00:08:18.332Z,101343.22
2023-04-08T00:10:46.610Z,101348.28
2023-04-08T00:13:14.870Z,101342.25
2023-04-08T00:15:44.550Z,101336.16
2023-04-08T00:18:12.759Z,101342.75
2023-04-08T00:20:41.057Z,101336.84
2023-04-08T00:23:09.430Z,101342.16
2023-04-08T00:25:37.674Z,101348.38
2023-04-08T00:28:05.946Z,101347.19
2023-04-08T00:30:34.388Z,101338.97
2023-04-08T00:33:04.446Z,101343.69
2023-04-08T00:35:32.819Z,101349.09
2023-04-08T00:38:01.580Z,101346.38
2023-04-08T00:40:29.917Z,101345.69
2023-04-08T00:42:58.285Z,101347.56
2023-04-08T00:45:26.673Z,101344.63
2023-04-08T00:47:55.291Z,101342.97
2023-04-08T00:50:25.924Z,101347.78
2023-04-08T00:52:54.151Z,101351.22
2023-04-08T00:55:22.582Z,101350.03
2023-04-08T00:57:50.988Z,101350.50
2023-04-08T01:00:19.202Z,101354.03
2023-04-08T01:02:50.798Z,101359.53
2023-04-08T01:05:24.120Z,101364.22
2023-04-08T01:07:53.835Z,101353.25
2023-04-08T01:10:23.350Z,101362.97
2023-04-08T01:12:54.837Z,101371.00
2023-04-08T01:15:24.582Z,101359.94
2023-04-08T01:17:55.091Z,101358.22
2023-04-08T01:20:25.037Z,101353.25
2023-04-08T01:23:03.870Z,101356.97
2023-04-08T01:25:33.278Z,101368.75
2023-04-08T01:28:04.746Z,101358.38
2023-04-08T01:30:33.412Z,101361.88
2023-04-08T01:33:02.957Z,101359.63
2023-04-08T01:35:31.770Z,101359.16
2023-04-08T01:38:00.808Z,101358.09
2023-04-08T01:40:29.103Z,101363.88
2023-04-08T01:42:58.159Z,101360.13
2023-04-08T01:45:29.142Z,101357.50
2023-04-08T01:47:57.637Z,101366.56
2023-04-08T01:50:26.448Z,101361.00
2023-04-08T01:52:55.812Z,101363.03
2023-04-08T01:55:25.676Z,101359.03
2023-04-08T01:57:54.377Z,101359.00
2023-04-08T02:00:25.765Z,101359.59
2023-04-08T02:02:56.755Z,101370.31
2023-04-08T02:05:25.274Z,101353.75
2023-04-08T02:07:53.468Z,101354.81
2023-04-08T02:10:21.857Z,101354.09
2023-04-08T02:12:50.192Z,101350.91
2023-04-08T02:15:18.672Z,101362.97
2023-04-08T02:17:50.433Z,101356.06
2023-04-08T02:20:22.798Z,101360.16
2023-04-08T02:22:54.428Z,101359.19
2023-04-08T02:25:25.212Z,101374.41
2023-04-08T02:27:54.077Z,101376.66
2023-04-08T02:30:22.955Z,101380.84
2023-04-08T02:32:52.658Z,101380.25
2023-04-08T02:35:22.526Z,101375.75
2023-04-08T02:37:51.446Z,101376.50
2023-04-08T02:40:26.807Z,101382.41
2023-04-08T02:42:55.715Z,101374.97
2023-04-08T02:45:24.172Z,101384.72
2023-04-08T02:47:52.456Z,101379.16
2023-04-08T02:50:22.216Z,101385.84
2023-04-08T02:52:50.486Z,101382.53
2023-04-08T02:55:18.876Z,101388.75
2023-04-08T02:57:48.409Z,101388.00
2023-04-08T03:00:17.093Z,101396.75
2023-04-08T03:02:45.427Z,101391.16
2023-04-08T03:05:13.998Z,101390.72
2023-04-08T03:07:43.748Z,101397.88
2023-04-08T03:10:11.990Z,101395.66
2023-04-08T03:12:40.334Z,101389.28
2023-04-08T03:15:09.000Z,101397.59
2023-04-08T03:17:49.056Z,101400.44
2023-04-08T03:20:17.422Z,101400.06
2023-04-08T03:22:47.012Z,101394.56
2023-04-08T03:25:15.482Z,101401.88
2023-04-08T03:27:43.823Z,101392.00
2023-04-08T03:30:12.189Z,101401.88
2023-04-08T03:32:40.726Z,101402.31
2023-04-08T03:35:09.427Z,101397.75
2023-04-08T03:37:37.767Z,101400.50
2023-04-08T03:40:09.908Z,101389.34
2023-04-08T03:42:38.249Z,101392.13
2023-04-08T03:45:07.008Z,101403.72
2023-04-08T03:47:35.488Z,101403.28
2023-04-08T03:50:04.066Z,101399.38
2023-04-08T03:52:32.245Z,101404.56
2023-04-08T03:55:01.932Z,101414.50
2023-04-08T03:57:31.474Z,101421.38
2023-04-08T03:59:59.807Z,101405.63
2023-04-08T04:02:28.328Z,101413.72
2023-04-08T04:04:56.853Z,101405.28
2023-04-08T04:07:25.237Z,101407.78
2023-04-08T04:09:56.865Z,101414.19
2023-04-08T04:12:25.411Z,101413.41
2023-04-08T04:14:55.681Z,101409.47
2023-04-08T04:17:23.981Z,101416.34
2023-04-08T04:19:52.788Z,101422.59
2023-04-08T04:22:21.585Z,101416.16
2023-04-08T04:24:49.944Z,101405.13
2023-04-08T04:27:18.495Z,101431.66
2023-04-08T04:29:46.953Z,101425.44
2023-04-08T04:32:16.493Z,101425.84
2023-04-08T04:34:44.873Z,101428.31
2023-04-08T04:37:13.687Z,101441.72
2023-04-08T04:39:41.878Z,101433.81
2023-04-08T04:42:10.118Z,101434.03
2023-04-08T04:44:38.468Z,101445.63
2023-04-08T04:47:06.860Z,101442.34
2023-04-08T04:49:36.849Z,101451.44
2023-04-08T04:52:06.053Z,101448.69
2023-04-08T04:54:34.711Z,101448.47
2023-04-08T04:57:03.001Z,101447.22
2023-04-08T04:59:31.189Z,101453.84
2023-04-08T05:01:59.903Z,101450.69
2023-04-08T05:04:28.489Z,101442.75
2023-04-08T05:06:59.868Z,101445.41
2023-04-08T05:09:28.418Z,101449.84
2023-04-08T05:11:57.295Z,101450.66
2023-04-08T05:14:25.530Z,101445.28
2023-04-08T05:16:53.728Z,101451.53
2023-04-08T05:19:21.967Z,101460.84
2023-04-08T05:21:50.389Z,101455.88
2023-04-08T05:24:20.160Z,101460.44
2023-04-08T05:26:52.109Z,101462.09
2023-04-08T05:29:21.891Z,101467.84
2023-04-08T05:31:50.455Z,101464.44
2023-04-08T05:34:22.955Z,101468.13
2023-04-08T05:36:52.780Z,101477.72
2023-04-08T05:39:22.612Z,101479.53
2023-04-08T05:41:51.027Z,101479.41
2023-04-08T05:44:19.357Z,101483.31
2023-04-08T05:46:47.788Z,101475.72
2023-04-08T05:49:17.194Z,101490.53
2023-04-08T05:51:45.359Z,101495.19
2023-04-08T05:54:13.714Z,101503.06
2023-04-08T05:56:46.194Z,101513.50
2023-04-08T05:59:14.526Z,101511.31
2023-04-08T06:01:42.850Z,101513.50
2023-04-08T06:04:11.315Z,101510.50
2023-04-08T06:06:40.130Z,101497.69
2023-04-08T06:09:09.872Z,101500.78
2023-04-08T06:11:38.193Z,101499.88
2023-04-08T06:14:07.834Z,101503.44
2023-04-08T06:16:36.172Z,101507.59
2023-04-08T06:19:04.384Z,101517.00
2023-04-08T06:21:32.644Z,101515.63
2023-04-08T06:24:00.909Z,101521.13
2023-04-08T06:26:29.090Z,101527.13
2023-04-08T06:28:57.529Z,101532.22
2023-04-08T06:31:27.193Z,101527.31
2023-04-08T06:33:55.898Z,101521.94
2023-04-08T06:36:26.347Z,101538.19
2023-04-08T06:38:54.926Z,101545.25
2023-04-08T06:41:23.355Z,101540.06
2023-04-08T06:43:51.782Z,101534.56
2023-04-08T06:46:20.164Z,101538.16
2023-04-08T06:48:50.050Z,101534.97
2023-04-08T06:51:21.179Z,101542.41
2023-04-08T06:53:49.446Z,101555.13
2023-04-08T06:56:17.648Z,101551.00
2023-04-08T06:58:46.039Z,101559.16
2023-04-08T07:01:16.225Z,101560.34
2023-04-08T07:03:46.966Z,101556.16
2023-04-08T07:06:16.641Z,101561.56
2023-04-08T07:08:45.023Z,101560.66
2023-04-08T07:11:14.565Z,101569.16
2023-04-08T07:13:42.843Z,101568.78
2023-04-08T07:16:11.638Z,101572.44
2023-04-08T07:18:41.377Z,101571.34
2023-04-08T07:21:09.588Z,101565.22
2023-04-08T07:23:39.551Z,101568.91
2023-04-08T07:26:07.789Z,101562.78
2023-04-08T07:28:36.233Z,101565.81
2023-04-08T07:31:11.665Z,101574.06
2023-04-08T07:33:39.994Z,101568.63
2023-04-08T07:36:08.226Z,101576.88
2023-04-08T07:38:36.770Z,101576.84
2023-04-08T07:41:06.592Z,101583.34
2023-04-08T07:43:37.167Z,101586.69
2023-04-08T07:46:06.178Z,101584.81
2023-04-08T07:48:35.042Z,101586.91
2023-04-08T07:51:10.029Z,101581.78
2023-04-08T07:53:40.242Z,101584.44
2023-04-08T07:56:13.823Z,101585.81
2023-04-08T07:58:42.352Z,101585.06
2023-04-08T08:01:18.093Z,101597.09
2023-04-08T08:03:47.897Z,101604.19
2023-04-08T08:06:18.349Z,101597.75
2023-04-08T08:08:46.868Z,101595.41
2023-04-08T08:11:16.390Z,101602.66
2023-04-08T08:13:44.685Z,101604.06
2023-04-08T08:16:12.940Z,101610.53
2023-04-08T08:18:41.579Z,101609.53
2023-04-08T08:21:10.483Z,101614.00
2023-04-08T08:23:38.791Z,101614.16
2023-04-08T08:26:09.830Z,101612.97
2023-04-08T08:28:39.847Z,101625.34
2023-04-08T08:31:08.376Z,101618.84
2023-04-08T08:33:36.698Z,101618.94
2023-04-08T08:36:13.322Z,101623.78
2023-04-08T08:38:41.672Z,101632.91
2023-04-08T08:41:09.883Z,101638.03
2023-04-08T08:43:38.298Z,101640.19
2023-04-08T08:46:11.025Z,101636.91
2023-04-08T08:48:40.914Z,101640.53
2023-04-08T08:51:09.615Z,101653.22
2023-04-08T08:53:38.293Z,101653.19
2023-04-08T08:58:40.937Z,101657.59
2023-04-08T09:01:27.723Z,101653.75
2023-04-08T09:04:07.525Z,101658.06
2023-04-08T09:06:36.329Z,101658.28
2023-04-08T09:09:05.979Z,101652.22
2023-04-08T09:11:34.636Z,101652.13
2023-04-08T09:14:02.861Z,101654.78
2023-04-08T09:16:32.127Z,101648.28
2023-04-08T09:19:11.589Z,101648.81
2023-04-08T09:21:41.143Z,101651.19
2023-04-08T09:24:09.847Z,101649.19
2023-04-08T09:26:38.790Z,101656.03
2023-04-08T09:29:25.218Z,101653.13
2023-04-08T09:31:57.733Z,101658.34
2023-04-08T09:34:28.269Z,101666.44
2023-04-08T09:36:56.912Z,101671.16
2023-04-08T09:39:25.732Z,101667.81
2023-04-08T09:41:54.582Z,101662.41
2023-04-08T09:44:23.559Z,101667.25
2023-04-08T09:46:57.792Z,101663.34
2023-04-08T09:49:31.319Z,101660.47
2023-04-08T09:52:01.172Z,101665.56
2023-04-08T09:54:34.792Z,101667.72
2023-04-08T09:57:06.396Z,101667.69
2023-04-08T09:59:36.570Z,101663.59
2023-04-08T10:02:08.238Z,101667.78
2023-04-08T10:04:39.950Z,101669.97
2023-04-08T10:07:09.490Z,101665.97
2023-04-08T10:09:38.873Z,101661.06
2023-04-08T10:12:07.191Z,101663.25
2023-04-08T10:14:35.588Z,101658.81
2023-04-08T10:17:23.140Z,101665.78
2023-04-08T10:19:52.866Z,101673.50
2023-04-08T10:22:39.968Z,101664.59
2023-04-08T10:25:26.891Z,101669.34
2023-04-08T10:27:55.358Z,101666.44
2023-04-08T10:30:43.081Z,101675.66
2023-04-08T10:33:12.230Z,101676.22
2023-04-08T10:35:44.487Z,101676.22
2023-04-08T10:38:13.855Z,101670.53
2023-04-08T10:40:42.839Z,101671.50
2023-04-08T10:43:11.426Z,101662.91
2023-04-08T10:45:39.948Z,101668.63
2023-04-08T10:48:14.849Z,101666.88
2023-04-08T10:50:44.664Z,101661.53
2023-04-08T10:53:12.876Z,101657.09
2023-04-08T10:55:41.121Z,101653.00
2023-04-08T10:58:09.847Z,101657.28
2023-04-08T11:00:38.821Z,101656.94
2023-04-08T11:03:08.749Z,101642.31
2023-04-08T11:05:38.223Z,101649.31
2023-04-08T11:08:08.282Z,101654.28
2023-04-08T11:10:38.830Z,101649.53
2023-04-08T11:13:08.521Z,101648.47
2023-04-08T11:15:37.100Z,101651.75
2023-04-08T11:18:05.768Z,101655.91
2023-04-08T11:20:36.139Z,101649.88
2023-04-08T11:23:04.492Z,101659.59
2023-04-08T11:25:34.158Z,101656.97
2023-04-08T11:28:03.120Z,101653.69
2023-04-08T11:30:31.413Z,101655.34
2023-04-08T11:33:01.408Z,101659.25
2023-04-08T11:35:29.938Z,101652.28
2023-04-08T11:37:58.573Z,101651.34
2023-04-08T11:40:27.487Z,101652.34
2023-04-08T11:42:57.240Z,101652.00
2023-04-08T11:45:25.647Z,101650.50
2023-04-08T11:47:54.110Z,101647.34
2023-04-08T11:50:27.849Z,101649.34
2023-04-08T11:52:56.999Z,101646.84
2023-04-08T11:55:25.899Z,101641.41
2023-04-08T11:57:55.301Z,101654.81
2023-04-08T12:00:26.035Z,101654.19
2023-04-08T12:02:54.923Z,101652.09
2023-04-08T12:05:23.201Z,101655.16
2023-04-08T12:07:51.794Z,101658.56
2023-04-08T12:10:20.562Z,101664.66
2023-04-08T12:12:49.328Z,101663.47
2023-04-08T12:15:17.551Z,101665.19
2023-04-08T12:17:47.249Z,101662.47
2023-04-08T12:20:17.326Z,101669.31
2023-04-08T12:22:45.645Z,101668.72
2023-04-08T12:25:14.074Z,101665.81
2023-04-08T12:27:43.304Z,101665.41
2023-04-08T12:30:12.168Z,101664.41
2023-04-08T12:32:41.216Z,101661.94
2023-04-08T12:35:11.244Z,101668.56
2023-04-08T12:37:42.788Z,101664.09
2023-04-08T12:40:11.414Z,101658.34
2023-04-08T12:42:39.736Z,101663.97
2023-04-08T12:45:09.019Z,101661.38
2023-04-08T12:47:57.892Z,101656.59
2023-04-08T12:50:27.571Z,101653.59
2023-04-08T12:52:56.204Z,101658.94
2023-04-08T12:55:25.218Z,101656.69
2023-04-08T12:57:53.471Z,101665.56
2023-04-08T13:00:21.920Z,101654.47
2023-04-08T13:02:50.496Z,101652.69
2023-04-08T13:05:23.677Z,101644.84
2023-04-08T13:07:59.433Z,101657.06
2023-04-08T13:10:27.808Z,101648.25
2023-04-08T13:12:55.973Z,101651.78
2023-04-08T13:15:25.816Z,101652.94
2023-04-08T13:17:55.878Z,101646.91
2023-04-08T13:20:26.285Z,101643.00
2023-04-08T13:22:54.655Z,101651.47
2023-04-08T13:25:24.269Z,101649.50
2023-04-08T13:27:52.580Z,101651.53
2023-04-08T13:30:20.843Z,101649.91
2023-04-08T13:32:49.199Z,101646.22
2023-04-08T13:35:17.596Z,101646.03
2023-04-08T13:37:45.771Z,101652.56
2023-04-08T13:40:14.484Z,101652.50
2023-04-08T13:42:44.027Z,101660.59
2023-04-08T13:45:12.316Z,101660.63
2023-04-08T13:47:40.963Z,101648.22
2023-04-08T13:50:10.002Z,101657.22
2023-04-08T13:52:38.291Z,101651.88
2023-04-08T13:55:07.340Z,101651.69
2023-04-08T13:57:35.651Z,101641.06
2023-04-08T14:00:06.906Z,101648.56
2023-04-08T14:02:35.367Z,101645.56
2023-04-08T14:05:04.333Z,101650.06
2023-04-08T14:07:32.566Z,101645.13
2023-04-08T14:10:01.365Z,101647.06
2023-04-08T14:12:29.572Z,101642.22
2023-04-08T14:14:57.915Z,101644.56
2023-04-08T14:17:27.578Z,101643.03
2023-04-08T14:19:56.143Z,101634.81
2023-04-08T14:22:24.501Z,101634.59
2023-04-08T14:24:52.769Z,101643.59
2023-04-08T14:27:21.580Z,101642.81
2023-04-08T14:29:49.948Z,101641.16
2023-04-08T14:32:18.172Z,101650.50
2023-04-08T14:34:47.844Z,101643.91
2023-04-08T14:37:17.769Z,101646.13
2023-04-08T14:40:00.216Z,101646.09
2023-04-08T14:42:28.478Z,101645.50
2023-04-08T14:44:57.478Z,101650.09
2023-04-08T14:47:25.838Z,101652.13
2023-04-08T14:49:55.504Z,101647.97
2023-04-08T14:52:24.932Z,101646.31
2023-04-08T14:54:53.692Z,101641.16
2023-04-08T14:57:21.942Z,101641.16
2023-04-08T14:59:50.309Z,101655.41
2023-04-08T15:02:18.649Z,101640.66
2023-04-08T15:04:46.944Z,101640.91
2023-04-08T15:07:17.369Z,101649.38
2023-04-08T15:09:45.659Z,101643.94
2023-04-08T15:12:13.939Z,101635.72
2023-04-08T15:14:42.184Z,101632.69
2023-04-08T15:17:10.935Z,101634.31
2023-04-08T15:19:39.293Z,101641.13
2023-04-08T15:22:07.572Z,101637.28
2023-04-08T15:24:37.370Z,101642.66
2023-04-08T15:27:05.663Z,101634.53
2023-04-08T15:29:33.954Z,101640.03
2023-04-08T15:32:02.169Z,101640.31
2023-04-08T15:34:30.999Z,101645.00
2023-04-08T15:36:59.291Z,101632.13
2023-04-08T15:39:27.451Z,101632.97
2023-04-08T15:41:57.816Z,101636.25
2023-04-08T15:44:26.064Z,101642.81
2023-04-08T15:46:54.492Z,101637.34
2023-04-08T15:49:22.724Z,101640.63
2023-04-08T15:51:51.223Z,101641.13
2023-04-08T15:54:19.729Z,101646.59
2023-04-08T15:56:47.914Z,101634.56
2023-04-08T15:59:17.493Z,101649.34
2023-04-08T16:01:45.938Z,101648.75
2023-04-08T16:04:14.218Z,101647.06
2023-04-08T16:06:42.534Z,101638.91
2023-04-08T16:09:11.850Z,101641.66
2023-04-08T16:11:40.071Z,101632.91
2023-04-08T16:14:08.242Z,101647.66
2023-04-08T16:16:38.562Z,101644.41
2023-04-08T16:19:07.432Z,101639.22
2023-04-08T16:21:35.944Z,101646.88
2023-04-08T16:24:05.116Z,101640.63
2023-04-08T16:26:33.336Z,101634.59
2023-04-08T16:29:01.798Z,101634.06
2023-04-08T16:34:01.169Z,101642.78
2023-04-08T16:36:29.508Z,101646.09
2023-04-08T16:38:57.774Z,101638.66
2023-04-08T16:41:26.240Z,101637.00
2023-04-08T16:43:54.518Z,101639.47
2023-04-08T16:46:22.848Z,101642.81
2023-04-08T16:48:51.399Z,101633.50
2023-04-08T16:51:21.070Z,101631.84
2023-04-08T16:53:49.368Z,101635.72
2023-04-08T16:56:17.808Z,101645.56
2023-04-08T16:58:46.177Z,101644.19
2023-04-08T17:01:15.163Z,101643.63
2023-04-08T17:03:43.510Z,101642.25
2023-04-08T17:06:13.633Z,101644.16
2023-04-08T17:08:44.139Z,101643.91
2023-04-08T17:11:13.157Z,101638.97
2023-04-08T17:13:42.516Z,101647.22
2023-04-08T17:16:12.899Z,101649.94
2023-04-08T17:18:41.163Z,101645.53
2023-04-08T17:21:09.560Z,101648.78
2023-04-08T17:23:37.722Z,101658.59
2023-04-08T17:26:10.659Z,101660.78
2023-04-08T17:28:39.578Z,101658.06
2023-04-08T17:31:07.738Z,101659.63
2023-04-08T17:33:35.974Z,101658.28
2023-04-08T17:36:04.420Z,101664.53
2023-04-08T17:38:33.153Z,101671.63
2023-04-08T17:41:01.565Z,101663.13
2023-04-08T17:43:31.306Z,101662.28
2023-04-08T17:46:00.148Z,101662.81
2023-04-08T17:48:28.639Z,101669.59
2023-04-08T17:51:00.576Z,101670.38
2023-04-08T17:53:29.191Z,101667.09
2023-04-08T17:55:57.556Z,101667.38
2023-04-08T17:58:26.474Z,101671.50
2023-04-08T18:00:56.026Z,101666.56
2023-04-08T18:03:24.330Z,101676.66
2023-04-08T18:05:54.997Z,101679.63
2023-04-08T18:08:23.228Z,101677.19
2023-04-08T18:10:51.446Z,101685.06
2023-04-08T18:13:19.821Z,101679.06
2023-04-08T18:15:48.053Z,101696.56
2023-04-08T18:18:20.088Z,101699.28
2023-04-08T18:20:50.403Z,101692.72
2023-04-08T18:23:18.825Z,101705.22
2023-04-08T18:25:47.560Z,101707.38
2023-04-08T18:28:19.102Z,101704.09
2023-04-08T18:30:51.183Z,101707.34
2023-04-08T18:33:21.654Z,101707.91
2023-04-08T18:35:49.961Z,101718.25
2023-04-08T18:38:18.269Z,101712.81
2023-04-08T18:40:46.638Z,101714.97
2023-04-08T18:43:14.868Z,101719.34
2023-04-08T18:45:43.282Z,101721.69
2023-04-08T18:48:12.312Z,101726.41
2023-04-08T18:50:41.911Z,101717.88
2023-04-08T18:53:10.447Z,101724.91
2023-04-08T18:55:38.979Z,101719.66
2023-04-08T18:58:07.399Z,101730.38
2023-04-08T19:00:35.846Z,101729.25
2023-04-08T19:03:05.258Z,101723.47
2023-04-08T19:05:34.680Z,101724.25
2023-04-08T19:08:04.501Z,101728.88
2023-04-08T19:10:33.403Z,101724.75
2023-04-08T19:13:02.235Z,101729.66
2023-04-08T19:15:31.003Z,101725.81
2023-04-08T19:18:00.436Z,101735.16
2023-04-08T19:20:28.722Z,101733.44
2023-04-08T19:22:57.295Z,101735.16
2023-04-08T19:25:26.851Z,101737.84
2023-04-08T19:27:55.109Z,101736.63
2023-04-08T19:30:23.509Z,101741.63
2023-04-08T19:32:51.929Z,101736.63
2023-04-08T19:35:20.198Z,101738.88
2023-04-08T19:37:48.525Z,101731.25
2023-04-08T19:40:16.684Z,101744.56
2023-04-08T19:42:46.547Z,101737.44
2023-04-08T19:45:14.718Z,101734.00
2023-04-08T19:47:43.662Z,101739.19
2023-04-08T19:50:12.579Z,101737.25
2023-04-08T19:52:40.879Z,101748.88
2023-04-08T19:55:10.109Z,101748.69
2023-04-08T19:57:38.545Z,101749.72
2023-04-08T20:00:09.152Z,101745.88
2023-04-08T20:02:37.594Z,101739.25
2023-04-08T20:05:07.079Z,101745.00
2023-04-08T20:07:35.739Z,101746.84
2023-04-08T20:10:04.046Z,101748.44
2023-04-08T20:12:32.304Z,101752.81
2023-04-08T20:15:00.805Z,101752.63
2023-04-08T20:17:30.482Z,101755.31
2023-04-08T20:19:59.064Z,101755.00
2023-04-08T20:22:27.769Z,101759.31
2023-04-08T20:24:55.991Z,101761.16
2023-04-08T20:27:24.510Z,101757.06
2023-04-08T20:29:52.790Z,101754.88
2023-04-08T20:32:21.281Z,101761.97
2023-04-08T20:34:50.888Z,101760.31
2023-04-08T20:37:19.595Z,101760.25
2023-04-08T20:39:48.125Z,101754.28
2023-04-08T20:42:16.557Z,101767.28
2023-04-08T20:44:44.910Z,101766.72
2023-04-08T20:47:13.334Z,101764.81
2023-04-08T20:49:42.688Z,101765.34
2023-04-08T20:52:12.348Z,101766.09
2023-04-08T20:54:40.738Z,101774.28
2023-04-08T20:57:09.063Z,101775.81
2023-04-08T20:59:37.440Z,101766.47
2023-04-08T21:02:07.459Z,101757.16
2023-04-08T21:04:35.902Z,101763.69
2023-04-08T21:07:04.340Z,101762.34
2023-04-08T21:09:34.019Z,101762.53
2023-04-08T21:12:02.867Z,101749.41
2023-04-08T21:14:32.031Z,101750.75
2023-04-08T21:17:00.243Z,101749.84
2023-04-08T21:19:28.578Z,101745.63
2023-04-08T21:21:56.876Z,101746.16
2023-04-08T21:24:27.079Z,101735.91
2023-04-08T21:26:57.580Z,101750.09
2023-04-08T21:29:25.987Z,101740.88
2023-04-08T21:31:54.309Z,101746.75
2023-04-08T21:34:23.813Z,101745.16
2023-04-08T21:36:52.153Z,101743.28
2023-04-08T21:39:20.565Z,101744.44
2023-04-08T21:41:49.289Z,101742.50
2023-04-08T21:44:19.226Z,101750.56
2023-04-08T21:46:49.928Z,101751.53
2023-04-08T21:49:18.310Z,101745.69
2023-04-08T21:51:46.890Z,101755.81
2023-04-08T21:54:15.568Z,101757.88
2023-04-08T21:56:43.903Z,101748.41
2023-04-08T21:59:12.164Z,101749.91
2023-04-08T22:01:42.210Z,101758.16
2023-04-08T22:04:11.083Z,101754.25
2023-04-08T22:06:39.476Z,101759.47
2023-04-08T22:09:07.896Z,101755.34
2023-04-08T22:11:36.158Z,101754.50
2023-04-08T22:14:04.428Z,101759.53
2023-04-08T22:16:33.082Z,101758.94
2023-04-08T22:19:03.485Z,101756.31
2023-04-08T22:21:34.549Z,101757.97
2023-04-08T22:24:02.976Z,101763.75
2023-04-08T22:26:31.531Z,101757.00
2023-04-08T22:28:59.838Z,101760.78
2023-04-08T22:31:28.832Z,101754.69
2023-04-08T22:33:57.278Z,101764.75
2023-04-08T22:36:27.103Z,101763.16
2023-04-08T22:38:55.367Z,101757.47
2023-04-08T22:41:24.694Z,101763.25
2023-04-08T22:44:07.119Z,101764.72
2023-04-08T22:46:36.487Z,101769.91
2023-04-08T22:49:04.925Z,101759.78
2023-04-08T22:51:34.637Z,101766.53
2023-04-08T22:54:02.925Z,101771.97
2023-04-08T22:56:31.409Z,101766.47
2023-04-08T22:58:59.698Z,101766.16
2023-04-08T23:01:27.959Z,101762.19
2023-04-08T23:03:56.173Z,101764.81
2023-04-08T23:06:24.471Z,101763.91
2023-04-08T23:08:54.203Z,101765.59
2023-04-08T23:11:22.831Z,101764.56
2023-04-08T23:13:50.987Z,101760.22
2023-04-08T23:16:19.255Z,101756.94
2023-04-08T23:18:47.628Z,101751.03
2023-04-08T23:21:16.269Z,101758.63
2023-04-08T23:23:44.658Z,101754.59
2023-04-08T23:26:18.909Z,101747.41
2023-04-08T23:28:47.196Z,101752.59
2023-04-08T23:31:15.454Z,101745.88
2023-04-08T23:33:43.672Z,101747.28
2023-04-08T23:36:12.400Z,101744.56
2023-04-08T23:38:40.680Z,101750.72
2023-04-08T23:41:08.959Z,101755.81
2023-04-08T23:43:38.480Z,101756.28
2023-04-08T23:46:06.870Z,101747.22
2023-04-08T23:48:35.188Z,101757.09
2023-04-08T23:51:03.459Z,101758.75
2023-04-08T23:53:31.863Z,101749.19
2023-04-08T23:56:04.505Z,101749.06
2023-04-08T23:58:32.781Z,101746.59
